Ostrica, Louisiana
Current Conditions -  °F | °C
As of 2:51 PM on Tuesday 27 Jan 2015 (Local Time) from KBVE Reporting Station
Clear Clear  
Wind Chill: 68°   Ceiling: Unl
Heat Index: 68°   Visibility: 10mi
Dew Point: 39°   Wind: 7mph
Humidity: 35%   Direction: 320°NW
Pressure: 30.08"   Gusts: NA
Location:  29.2996°N, 89.4367°W
Report Text: KBVE 272051Z AUTO 32006KT 10SM CLR 20/04 A3008 RMK AO2 SLP186 T02000039 56016
Loading
Personal Weather Stations






























Interactive Weather Map New forecast layout! Learn more

10-Day Weather Forecast

Advertisements
Track Severe Weather on mobile